地図

経路データ

SID SEASON NUMBER BASIN SUBBASIN NAME ISO_TIME NATURE LAT LON WMO_WIND WMO_PRES WMO_AGENCY TRACK_TYPE DIST2LAND LANDFALL IFLAG USA_AGENCY USA_ATCF_ID USA_LAT USA_LON USA_RECORD USA_STATUS USA_WIND USA_PRES USA_SSHS USA_R34_NE USA_R34_SE USA_R34_SW USA_R34_NW USA_R50_NE USA_R50_SE USA_R50_SW USA_R50_NW USA_R64_NE USA_R64_SE USA_R64_SW USA_R64_NW USA_POCI USA_ROCI USA_RMW USA_EYE TOKYO_LAT TOKYO_LON TOKYO_GRADE TOKYO_WIND TOKYO_PRES TOKYO_R50_DIR TOKYO_R50_LONG TOKYO_R50_SHORT TOKYO_R30_DIR TOKYO_R30_LONG TOKYO_R30_SHORT TOKYO_LAND CMA_LAT CMA_LON CMA_CAT CMA_WIND CMA_PRES HKO_LAT HKO_LON HKO_CAT HKO_WIND HKO_PRES NEWDELHI_LAT NEWDELHI_LON NEWDELHI_GRADE NEWDELHI_WIND NEWDELHI_PRES NEWDELHI_CI NEWDELHI_DP NEWDELHI_POCI REUNION_LAT REUNION_LON REUNION_TYPE REUNION_WIND REUNION_PRES REUNION_TNUM REUNION_CI REUNION_RMW REUNION_R34_NE REUNION_R34_SE REUNION_R34_SW REUNION_R34_NW REUNION_R50_NE REUNION_R50_SE REUNION_R50_SW REUNION_R50_NW REUNION_R64_NE REUNION_R64_SE REUNION_R64_SW REUNION_R64_NW BOM_LAT BOM_LON BOM_TYPE BOM_WIND BOM_PRES BOM_TNUM BOM_CI BOM_RMW BOM_R34_NE BOM_R34_SE BOM_R34_SW BOM_R34_NW BOM_R50_NE BOM_R50_SE BOM_R50_SW BOM_R50_NW BOM_R64_NE BOM_R64_SE BOM_R64_SW BOM_R64_NW BOM_ROCI BOM_POCI BOM_EYE BOM_POS_METHOD BOM_PRES_METHOD NADI_LAT NADI_LON NADI_CAT NADI_WIND NADI_PRES WELLINGTON_LAT WELLINGTON_LON WELLINGTON_WIND WELLINGTON_PRES DS824_LAT DS824_LON DS824_STAGE DS824_WIND DS824_PRES TD9636_LAT TD9636_LON TD9636_STAGE TD9636_WIND TD9636_PRES TD9635_LAT TD9635_LON TD9635_WIND TD9635_PRES TD9635_ROCI NEUMANN_LAT NEUMANN_LON NEUMANN_CLASS NEUMANN_WIND NEUMANN_PRES MLC_LAT MLC_LON MLC_CLASS MLC_WIND MLC_PRES USA_GUST BOM_GUST BOM_GUST_PER REUNION_GUST REUNION_GUST_PER USA_SEAHGT USA_SEARAD_NE USA_SEARAD_SE USA_SEARAD_SW USA_SEARAD_NW STORM_SPEED STORM_DIR
1900052S10049 1900 6 SI MM NOT_NAMED 1900-02-21 06:00:00 NR -10.1000 49.3000 reunion main 223 223 _____O________ -1 -10.1000 49.3000 99 9.90000 1 308
1900052S10049 1900 6 SI MM NOT_NAMED 1900-02-21 09:00:00 NR -10.0757 49.2576 main 223 223 _____P________ -1 -10.0757 49.2576 99 1 291
1900052S10049 1900 6 SI MM NOT_NAMED 1900-02-21 12:00:00 NR -10.0621 49.2014 main 223 223 _____P________ -1 -10.0621 49.2014 99 1 272
1900052S10049 1900 6 SI MM NOT_NAMED 1900-02-21 15:00:00 NR -10.0699 49.1178 main 224 224 _____P________ -1 -10.0699 49.1178 99 2 257
1900052S10049 1900 6 SI MM NOT_NAMED 1900-02-21 18:00:00 NR -10.1096 48.9928 main 225 215 _____P________ -1 -10.1096 48.9928 99 3 248
1900052S10049 1900 6 SI MM NOT_NAMED 1900-02-21 21:00:00 NR -10.1919 48.8126 main 217 208 _____P________ -1 -10.1919 48.8126 99 5 243
1900052S10049 1900 6 SI MM NOT_NAMED 1900-02-22 00:00:00 NR -10.3274 48.5632 main 211 199 _____P________ -1 -10.3274 48.5632 99 7 240
1900052S10049 1900 6 SI MM NOT_NAMED 1900-02-22 03:00:00 NR -10.5266 48.2305 main 209 200 _____P________ -1 -10.5266 48.2305 99 9 238
1900052S10049 1900 6 SI MM NOT_NAMED 1900-02-22 06:00:00 NR -10.8000 47.8000 reunion main 210 210 _____O________ -1 -10.8000 47.8000 99 9.90000 11 237
1900052S10049 1900 6 SI MM NOT_NAMED 1900-02-22 09:00:00 NR -11.1542 47.2647 main 218 218 _____P________ -1 -11.1542 47.2647 99 14 235
1900052S10049 1900 6 SI MM NOT_NAMED 1900-02-22 12:00:00 NR -11.5808 46.6479 main 259 259 _____P________ -1 -11.5808 46.6479 99 16 234
1900052S10049 1900 6 SI MM NOT_NAMED 1900-02-22 15:00:00 NR -12.0677 45.9806 main 273 273 _____P________ -1 -12.0677 45.9806 99 17 232
1900052S10049 1900 6 SI MM NOT_NAMED 1900-02-22 18:00:00 NR -12.6030 45.2944 main 307 307 _____P________ -1 -12.6030 45.2944 99 17 230
1900052S10049 1900 6 SI MM NOT_NAMED 1900-02-22 21:00:00 NR -13.1751 44.6209 main 318 279 _____P________ -1 -13.1751 44.6209 99 17 227
1900052S10049 1900 6 SI MM NOT_NAMED 1900-02-23 00:00:00 NR -13.7726 43.9923 main 273 233 _____P________ -1 -13.7726 43.9923 99 17 223
1900052S10049 1900 6 SI MM NOT_NAMED 1900-02-23 03:00:00 NR -14.3844 43.4411 main 238 208 _____P________ -1 -14.3844 43.4411 99 16 218
1900052S10049 1900 6 SI MM NOT_NAMED 1900-02-23 06:00:00 NR -15.0000 43.0000 reunion main 208 197 _____O________ -1 -15.0000 43.0000 99 9.90000 14 211
1900052S10049 1900 6 SI MM NOT_NAMED 1900-02-23 09:00:00 NR -15.6006 42.6928 main 197 193 _____P________ -1 -15.6006 42.6928 99 13 202
1900052S10049 1900 6 SI MM NOT_NAMED 1900-02-23 12:00:00 NR -16.2186 42.4784 main 203 177 _____P________ -1 -16.2186 42.4784 99 13 195
1900052S10049 1900 6 SI MM NOT_NAMED 1900-02-23 15:00:00 NR -16.8453 42.3561 main 177 170 _____P________ -1 -16.8453 42.3561 99 13 187
1900052S10049 1900 6 SI MM NOT_NAMED 1900-02-23 18:00:00 NR -17.4720 42.3250 main 169 165 _____P________ -1 -17.4720 42.3250 99 13 179
1900052S10049 1900 6 SI MM NOT_NAMED 1900-02-23 21:00:00 NR -18.0899 42.3844 main 169 158 _____P________ -1 -18.0899 42.3844 99 12 171
1900052S10049 1900 6 SI MM NOT_NAMED 1900-02-24 00:00:00 NR -18.6900 42.5338 main 161 147 _____P________ -1 -18.6900 42.5338 99 12 163
1900052S10049 1900 6 SI MM NOT_NAMED 1900-02-24 03:00:00 NR -19.2631 42.7726 main 148 130 _____P________ -1 -19.2631 42.7726 99 12 154
1900052S10049 1900 6 SI MM NOT_NAMED 1900-02-24 06:00:00 NR -19.8000 43.1000 reunion main 130 66 _____O________ -1 -19.8000 43.1000 99 9.90000 13 146
1900052S10049 1900 6 SI MM NOT_NAMED 1900-02-24 09:00:00 NR -20.3228 43.5467 main 66 0 _____P________ -1 -20.3228 43.5467 99 14 137
1900052S10049 1900 6 SI MM NOT_NAMED 1900-02-24 12:00:00 NR -20.8162 44.1040 main 0 0 _____P________ -1 -20.8162 44.1040 99 15 130
1900052S10049 1900 6 SI MM NOT_NAMED 1900-02-24 15:00:00 NR -21.2751 44.7410 main 0 0 _____P________ -1 -21.2751 44.7410 99 15 125
1900052S10049 1900 6 SI MM NOT_NAMED 1900-02-24 18:00:00 NR -21.6947 45.4263 main 0 0 _____P________ -1 -21.6947 45.4263 99 15 122
1900052S10049 1900 6 SI MM NOT_NAMED 1900-02-24 21:00:00 NR -22.0706 46.1277 main 0 0 _____P________ -1 -22.0706 46.1277 99 15 119
1900052S10049 1900 6 SI MM NOT_NAMED 1900-02-25 00:00:00 NR -22.3989 46.8125 main 0 0 _____P________ -1 -22.3989 46.8125 99 14 116
1900052S10049 1900 6 SI MM NOT_NAMED 1900-02-25 03:00:00 NR -22.6763 47.4477 main 0 0 _____P________ -1 -22.6763 47.4477 99 12 115
1900052S10049 1900 6 SI MM NOT_NAMED 1900-02-25 06:00:00 NR -22.9000 48.0000 reunion main 20 20 _____O________ -1 -22.9000 48.0000 99 9.90000 10 113
1900052S10049 1900 6 SI MM NOT_NAMED 1900-02-25 09:00:00 NR -23.0693 48.4440 main 65 65 _____P________ -1 -23.0693 48.4440 99 8 112
1900052S10049 1900 6 SI MM NOT_NAMED 1900-02-25 12:00:00 NR -23.1902 48.7859 main 107 107 _____P________ -1 -23.1902 48.7859 99 6 110
1900052S10049 1900 6 SI MM NOT_NAMED 1900-02-25 15:00:00 NR -23.2702 49.0398 main 130 130 _____P________ -1 -23.2702 49.0398 99 4 108
1900052S10049 1900 6 SI MM NOT_NAMED 1900-02-25 18:00:00 NR -23.3164 49.2203 main 149 149 _____P________ -1 -23.3164 49.2203 99 3 103
1900052S10049 1900 6 SI MM NOT_NAMED 1900-02-25 21:00:00 NR -23.3357 49.3418 main 159 159 _____P________ -1 -23.3357 49.3418 99 2 96
1900052S10049 1900 6 SI MM NOT_NAMED 1900-02-26 00:00:00 NR -23.3349 49.4191 main 169 169 _____P________ -1 -23.3349 49.4191 99 1 82
1900052S10049 1900 6 SI MM NOT_NAMED 1900-02-26 03:00:00 NR -23.3208 49.4669 main 179 179 _____P________ -1 -23.3208 49.4669 99 1 67
1900052S10049 1900 6 SI MM NOT_NAMED 1900-02-26 06:00:00 NR -23.3000 49.5000 reunion main 179 _____O________ -1 -23.3000 49.5000 99 9.90000 1 58

IBTrACS Databaseについて

本データベースは、米国NOAAが公開する1842年以降の世界の熱帯低気圧のベストトラックデータアーカイブInternational Best Track Archive for Climate Stewardship (IBTrACS)を、ウェブで閲覧しやすい形式に変換したものです。

最終更新日:2021-12-03